Latest Coastal Weather Observations for St Helens

IDT60701

Issued at 5:03 am EDT Thursday 2 March 2017 (issued every 10 minutes, with the page automatically refreshed every 10 minutes)

About coastal observations | Map of coastal stations | Coastal observations for TAS | Marine services | Other Formats
Station Details ID: 092120 Name: ST HELENS AERODROME Lat: -41.34 Lon: 148.28 Height: 48.0 m
Data from the previous 72 hours. | See also: Recent months at St Helens
Date/Time
EDT
Temp
°C
Wind Pressure Rain since
9am
mm
Weather Cloud Vis
km
Sea
Height
m
Swell
Dir  Spd
kts
Gust
kts
hPa Trend Height
m
Period
s
Dir
02/05:00am 20.0 NNW 5 7 1020.4 - 0.0 - Cloudy 10 - - - -
02/04:30am 20.3 NNW 7 12 1020.4 - 0.0 - Cloudy 10 - - - -
02/04:00am 20.3 N 7 10 1020.7 - 0.0 - Cloudy 10 - - - -
02/03:30am 20.0 NNW 5 9 1021.0 - 0.0 - Cloudy 10 - - - -
02/03:00am 20.0 NW 4 6 1021.2 - 0.0 - Cloudy 10 - - - -
02/02:30am 19.9 N 6 9 1021.4 - 0.0 - Cloudy 10 - - - -
02/02:00am 19.9 N 6 8 1021.7 - 0.0 - Partly cloudy 10 - - - -
02/01:30am 20.1 N 6 8 1021.9 - 0.0 - Partly cloudy 10 - - - -
02/01:00am 20.4 N 6 8 1022.2 - 0.0 - Cloudy 10 - - - -
02/12:30am 20.2 N 5 7 1022.2 - 0.0 - Cloudy 10 - - - -
02/12:11am 20.2 N 5 7 1022.3 - 0.0 - Partly cloudy 10 - - - -
02/12:00am 20.1 N 5 8 1022.4 - 0.0 - Cloudy 10 - - - -
 
Date/Time
EDT
Temp
°C
Wind Pressure Rain since
9am
mm
Weather Cloud Vis
km
Sea
Height
m
Swell
Dir  Spd
kts
Gust
kts
hPa Trend Height
m
Period
s
Dir
01/11:39pm 20.2 N 6 9 1022.4 - 0.0 - Partly cloudy 10 - - - -
01/11:30pm 20.3 N 7 10 1022.4 - 0.0 - Partly cloudy 10 - - - -
01/11:00pm 20.5 N 5 7 1022.7 - 0.0 - Partly cloudy 10 - - - -
01/10:30pm 20.6 N 5 7 1022.8 - 0.0 - Partly cloudy 10 - - - -
01/10:03pm 20.6 N 6 8 1022.9 - 0.0 - Partly cloudy 10 - - - -
01/10:00pm 20.6 N 6 8 1022.9 - 0.0 - Partly cloudy 10 - - - -
01/09:30pm 20.6 N 8 11 1022.9 - 0.0 - Cloudy 10 - - - -
01/09:00pm 20.6 N 7 10 1022.6 - 0.0 - Mostly cloudy 10 - - - -
01/08:30pm 20.7 N 7 11 1022.6 - 0.0 - Cloudy 10 - - - -
01/08:00pm 20.7 N 6 11 1022.3 - 0.0 - Cloudy 10 - - - -
01/07:30pm 20.9 N 8 12 1022.3 - 0.0 - Cloudy 10 - - - -
01/07:00pm 21.2 N 7 10 1022.1 - 0.0 - Cloudy 10 - - - -
01/06:30pm 21.6 N 7 10 1022.0 - 0.0 - Cloudy 10 - - - -
01/06:00pm 22.1 NNE 9 11 1022.0 - 0.0 - Cloudy 10 - - - -
01/05:40pm 22.4 NE 9 13 1021.9 - 0.0 - Cloudy 10 - - - -
01/05:30pm 22.9 NNE 8 13 1021.9 - 0.0 - - 10 - - - -
01/05:24pm 23.1 NE 9 - 1021.9 - 0.0 Haze Mostly cloudy 8 - - - -
01/05:00pm 22.8 NNE 8 11 1021.9 - 0.0 - - 10 - - - -
01/04:30pm 23.1 NE 12 16 1022.0 - 0.0 - - 10 - - - -
01/04:00pm 24.1 NE 14 19 1022.1 - 0.0 - - 10 - - - -
01/03:30pm 24.2 NE 11 16 1022.4 - 0.0 - - 10 - - - -
01/03:00pm 24.3 NNE 10 12 1022.7 - 0.0 - - 10 - - - -
01/02:30pm 23.7 NNE 10 15 1022.8 - 0.0 - - 10 - - - -
01/02:00pm 23.5 NNE 11 16 1022.9 - 0.0 - - 10 - - - -
01/01:30pm 24.0 NNE 11 16 1022.9 - 0.0 - - 10 - - - -
01/01:00pm 23.2 NNE 11 14 1023.0 - 0.0 - - 10 - - - -
01/12:30pm 24.2 NNE 12 17 1023.2 - 0.0 - - 10 - - - -
01/12:00pm 22.9 NNE 10 15 1023.6 - 0.0 - - 10 - - - -
01/11:30am 22.6 NNE 10 13 1023.7 - 0.0 - - 10 - - - -
01/11:00am 22.3 NNE 9 13 1023.7 - 0.0 - - 10 - - - -
01/10:30am 22.0 NNE 7 11 1023.9 - 0.0 - - 10 - - - -
01/10:00am 21.3 NNE 6 8 1023.9 - 0.0 - - 10 - - - -
01/09:30am 21.2 N 4 7 1023.9 - 0.0 - - 10 - - - -
01/09:00am 20.0 N 3 6 1023.8 - 0.2 Distant precip. Mostly cloudy 10 - - - -
01/08:30am 19.4 CALM 0 0 1023.7 - 0.2 - - 10 - - - -
01/08:00am 18.6 NNW 3 5 1023.5 - 0.2 - - 10 - - - -
01/07:30am 18.6 NW 4 4 1023.5 - 0.2 - - 10 - - - -
01/07:00am 18.8 CALM 0 3 1023.2 - 0.2 - - 10 - - - -
01/06:30am 19.0 CALM 0 0 1022.9 - 0.0 - - 10 - - - -
01/06:00am 19.2 CALM 0 0 1022.8 - 0.0 - - 10 - - - -
01/05:30am 19.5 CALM 0 0 1022.5 - 0.0 - - 10 - - - -
01/05:00am 19.7 CALM 0 0 1022.5 - 0.0 - - 7 - - - -
01/04:30am 19.8 CALM 0 0 1022.5 - 0.0 - - 7 - - - -
01/04:00am 19.9 N 3 4 1022.8 - 0.0 - - 8 - - - -
01/03:30am 19.9 N 4 6 1022.9 - 0.0 - - 9 - - - -
01/03:00am 19.8 N 4 5 1023.1 - 0.0 - - 7 - - - -
01/02:30am 19.9 N 4 6 1023.4 - 0.0 - - 8 - - - -
01/02:00am 20.0 N 4 5 1023.6 - 0.0 - - 9 - - - -
01/01:30am 20.0 N 4 6 1023.7 - 0.0 - - 10 - - - -
01/01:00am 20.0 NNW 5 7 1024.0 - 0.0 - - 10 - - - -
01/12:30am 20.0 N 5 7 1024.0 - 0.0 - - 10 - - - -
01/12:00am 20.2 N 5 7 1024.0 - 0.0 - - 10 - - - -
 
Date/Time
EDT
Temp
°C
Wind Pressure Rain since
9am
mm
Weather Cloud Vis
km
Sea
Height
m
Swell
Dir  Spd
kts
Gust
kts
hPa Trend Height
m
Period
s
Dir
28/11:30pm 20.4 N 6 9 1024.2 - 0.0 - - 10 - - - -
28/11:00pm 20.5 N 8 10 1024.1 - 0.0 - - 10 - - - -
28/10:30pm 20.4 N 7 9 1024.1 - 0.0 - - 10 - - - -
28/10:00pm 20.8 N 6 9 1024.2 - 0.0 - - 10 - - - -
28/09:30pm 20.8 N 5 8 1024.0 - 0.0 - - 10 - - - -
28/09:00pm 20.8 NNW 6 11 1023.8 - 0.0 - - 10 - - - -
28/08:36pm 20.7 N 7 11 1023.6 - 0.0 - - - - - - -
28/08:30pm 20.7 N 8 11 1023.5 - 0.0 - - - - - - -
28/08:00pm 20.3 N 8 12 1023.1 - 0.0 - - - - - - -
28/07:30pm 20.3 N 8 14 1022.9 - 0.0 - - - - - - -
28/07:00pm 20.7 N 9 14 1022.6 - 0.0 - - - - - - -
28/06:30pm 21.5 NNE 9 14 1022.6 - 0.0 - - - - - - -
28/06:00pm 22.2 NNE 11 16 1022.2 - 0.0 - - - - - - -
28/05:30pm 22.8 N 12 19 1022.4 - 0.0 - - - - - - -
28/05:00pm 23.1 NNE 10 17 1022.6 - 0.0 - - - - - - -
28/04:30pm 23.2 NNE 11 16 1022.7 - 0.0 - - - - - - -
28/04:00pm 23.5 NNE 11 17 1022.9 - 0.0 - - - - - - -
28/03:30pm 23.3 NNE 13 17 1023.2 - 0.0 - - - - - - -
28/03:00pm 24.1 NNE 12 17 1023.3 - 0.0 - - - - - - -
28/02:30pm 23.8 NNE 12 18 1023.5 - 0.0 - - - - - - -
28/02:00pm 23.6 NNE 12 17 1023.7 - 0.0 - - - - - - -
28/01:30pm 24.0 NNE 11 17 1023.9 - 0.0 - - 10 - - - -
28/01:00pm 23.7 N 11 17 1024.1 - 0.0 - - 10 - - - -
28/12:30pm 22.9 N 11 16 1024.4 - 0.0 - - 10 - - - -
28/12:00pm 23.4 N 9 14 1024.6 - 0.0 - - 10 - - - -
28/11:30am 21.9 N 9 12 1024.9 - 0.0 - - 10 - - - -
28/11:00am 21.8 N 8 13 1024.9 - 0.0 - - 10 - - - -
28/10:30am 22.3 N 6 12 1025.1 - 0.0 - - 10 - - - -
28/10:00am 20.5 WNW 3 5 1025.1 - 0.0 - - 10 - - - -
28/09:30am 19.3 WNW 4 5 1025.1 - 0.0 - - 10 - - - -
28/09:00am 17.4 NW 5 6 1025.1 - 0.0 Haze Mostly cloudy 15 - - - -
28/08:30am 16.0 N 5 6 1025.3 - 0.0 - - 10 - - - -
28/08:00am 14.9 NNW 6 7 1025.3 - 0.0 - - 10 - - - -
28/07:30am 14.3 NNW 6 7 1025.2 - 0.0 - - 10 - - - -
28/07:00am 14.3 NNW 6 7 1025.0 - 0.0 - - 10 - - - -
28/06:30am 14.2 NNW 5 6 1024.8 - 0.0 - - 10 - - - -
28/06:00am 14.0 NNW 4 5 1024.6 - 0.0 - - 10 - - - -
28/05:30am 14.1 NNW 5 7 1024.8 - 0.0 - - 10 - - - -
28/05:00am 14.1 N 5 6 1024.7 - 0.0 - - 10 - - - -
28/04:30am 14.1 N 5 6 1024.8 - 0.0 - - 10 - - - -
28/04:00am 14.2 N 5 6 1025.1 - 0.0 - - 10 - - - -
28/03:30am 14.1 N 5 6 1025.3 - 0.0 - - 10 - - - -
28/03:00am 14.0 NNW 5 6 1025.5 - 0.0 - - 10 - - - -
28/02:30am 13.7 NNW 5 7 1025.7 - 0.0 - - 10 - - - -
28/02:00am 13.7 NNW 5 6 1026.0 - 0.0 - - 10 - - - -
28/01:30am 13.5 NNW 6 8 1026.1 - 0.0 - - 10 - - - -
28/01:00am 13.6 N 6 7 1026.3 - 0.0 - - 10 - - - -
28/12:30am 13.6 N 6 7 1026.5 - 0.0 - - 10 - - - -
28/12:00am 13.7 NNW 5 6 1026.5 - 0.0 - - 10 - - - -
 
Date/Time
EDT
Temp
°C
Wind Pressure Rain since
9am
mm
Weather Cloud Vis
km
Sea
Height
m
Swell
Dir  Spd
kts
Gust
kts
hPa Trend Height
m
Period
s
Dir
27/11:30pm 13.9 NW 3 4 1026.8 - 0.0 - - 10 - - - -
27/11:00pm 14.6 NNW 4 6 1026.9 - 0.0 - - 10 - - - -
27/10:30pm 15.9 NW 3 4 1027.0 - 0.0 - - 10 - - - -
27/10:00pm 15.9 CALM 0 0 1027.2 - 0.0 - - 10 - - - -
27/09:30pm 16.4 WNW 2 4 1027.2 - 0.0 - - 10 - - - -
27/09:00pm 17.0 WNW 3 5 1027.0 - 0.0 - - 10 - - - -
27/08:30pm 17.4 NNW 3 5 1026.8 - 0.0 - - 10 - - - -
27/08:00pm 17.9 N 3 6 1026.8 - 0.0 - - 10 - - - -
27/07:30pm 18.6 N 8 11 1026.5 - 0.0 - - 10 - - - -
27/07:00pm 19.3 NNE 7 11 1026.2 - 0.0 - - 10 - - - -
27/06:30pm 19.3 NNE 9 15 1026.1 - 0.0 - - 10 - - - -
27/06:00pm 20.0 NNE 9 14 1026.0 - 0.0 - - 10 - - - -
27/05:30pm 20.6 NNE 10 17 1026.1 - 0.0 - - 10 - - - -
27/05:00pm 21.0 N 10 17 1026.3 - 0.0 - - 10 - - - -
27/04:30pm 20.8 N 10 15 1026.3 - 0.0 - - 10 - - - -
27/04:00pm 21.2 NNE 10 14 1026.5 - 0.0 - - 10 - - - -
27/03:30pm 20.3 NNE 11 16 1026.5 - 0.0 - - 10 - - - -
27/03:00pm 20.8 NNE 10 16 1026.7 - 0.0 - - 10 - - - -
27/02:30pm 22.0 N 9 13 1027.0 - 0.0 - - 10 - - - -
27/02:00pm 21.7 N 9 16 1027.2 - 0.0 - - 10 - - - -
27/01:30pm 21.5 NNE 9 15 1027.2 - 0.0 - - 10 - - - -
27/01:00pm 20.9 NNE 10 14 1027.3 - 0.0 - - 10 - - - -
27/12:30pm 20.3 NNE 10 13 1027.7 - 0.0 - - 10 - - - -
27/12:00pm 20.0 NNE 8 12 1027.8 - 0.0 - - 10 - - - -
27/11:30am 19.9 NNE 9 13 1028.0 - 0.0 - - 10 - - - -
27/11:00am 19.7 NNE 6 9 1028.1 - 0.0 - - 10 - - - -
27/10:30am 19.1 N 5 7 1028.2 - 0.0 - - 10 - - - -
27/10:00am 18.6 CALM 0 3 1028.2 - 0.0 - - 10 - - - -
27/09:30am 16.5 NW 3 4 1028.0 - 0.0 - - 10 - - - -
27/09:00am 14.8 WNW 4 5 1027.9 - 0.0 Haze Partly cloudy 20 - - - -
27/08:30am 12.9 NW 7 8 1027.8 - 0.0 - - 10 - - - -
27/08:00am 12.0 NW 7 8 1027.7 - 0.0 - - 10 - - - -
27/07:30am 11.5 NW 7 9 1027.6 - 0.0 - - 10 - - - -
27/07:00am 10.6 NW 8 8 1027.3 - 0.0 - - 10 - - - -
27/06:30am 10.3 NW 8 9 1027.0 - 0.0 - - 10 - - - -
27/06:00am 10.1 NW 7 8 1026.8 - 0.0 - - 10 - - - -
27/05:30am 10.0 NW 8 10 1026.8 - 0.0 - - 10 - - - -

Other Formats:

Comma delimited format used in spreadsheet applications
http://www.bom.gov.au/fwo/IDT60701/IDT60701.95981.axf

JavaScript Object Notation format (JSON) in row-major order
http://www.bom.gov.au/fwo/IDT60701/IDT60701.95981.json